Latest Weather Observations for Witchcliffe

IDW60801

Issued at 1:03 pm WST Saturday 29 February 2020 (issued every 10 minutes, with the page automatically refreshed every 10 minutes)

About weather observations | Map of weather stations | Latest weather observations for WA | Other Formats
Station Details ID: 009746 Name: WITCHCLIFFE Lat: -34.03 Lon: 115.10 Height: 80.0 m
Data from the previous 72 hours. | See also: Recent months at Witchcliffe
Date/Time
WST
Temp
°C
App
Temp
°C
Dew
Point
°C
Rel
Hum
%
Delta-T
°C
Wind Press
QNH
hPa
Press
MSL
hPa
Rain since
9am
mm
Dir  Spd
km/h
Gust
km/h
Spd
kts
Gust
kts
29/01:00pm 26.3 24.8 16.8 56 5.9 SW 20 28 11 15 1007.4 1007.1 0.0
29/12:30pm 25.4 24.2 17.6 62 4.9 WSW 20 32 11 17 1007.5 1007.2 0.0
29/12:00pm 25.1 24.1 17.6 63 4.7 WSW 19 28 10 15 1007.5 1007.2 0.0
29/11:30am 25.0 24.6 18.0 65 4.4 WSW 17 26 9 14 1007.6 1007.3 0.0
29/11:00am 24.5 23.8 18.2 68 4.0 WSW 19 30 10 16 1007.8 1007.5 0.0
29/10:30am 24.2 24.6 18.2 69 3.8 W 13 20 7 11 1007.6 1007.3 0.0
29/10:00am 23.5 25.3 18.8 75 3.0 WNW 7 15 4 8 1007.7 1007.4 0.0
29/09:30am 22.8 24.3 18.8 78 2.5 NW 9 15 5 8 1007.8 1007.5 0.0
29/09:00am 22.6 24.8 19.2 81 2.2 W 6 11 3 6 1007.6 1007.3 0.0
29/08:30am 21.6 23.4 19.5 88 1.3 W 9 13 5 7 1007.4 1007.1 0.0
29/08:00am 21.0 23.1 21.0 100 0.0 NNW 11 15 6 8 1007.3 1007.0 0.0
29/07:30am 20.0 23.7 20.0 100 0.0 CALM 0 7 0 4 1007.5 1007.2 0.0
29/07:00am 19.2 22.5 19.2 100 0.0 CALM 0 0 0 0 1007.3 1007.0 0.0
29/06:30am 17.8 20.1 17.8 100 0.0 NW 2 7 1 4 1006.9 1006.7 0.0
29/06:00am 16.6 18.8 16.4 99 0.1 CALM 0 0 0 0 1006.6 1006.4 0.0
29/05:30am 17.6 20.2 17.6 100 0.0 CALM 0 0 0 0 1006.7 1006.5 0.0
29/05:00am 17.5 20.0 17.3 99 0.1 CALM 0 0 0 0 1006.7 1006.5 0.0
29/04:30am 18.3 21.2 18.1 99 0.1 CALM 0 0 0 0 1006.8 1006.6 0.0
29/04:00am 18.5 21.4 18.3 99 0.1 CALM 0 0 0 0 1006.7 1006.5 0.0
29/03:30am 18.8 21.0 18.3 97 0.3 N 4 7 2 4 1006.8 1006.6 0.0
29/03:00am 19.6 22.6 19.3 98 0.2 NW 2 7 1 4 1006.8 1006.6 0.0
29/02:30am 19.7 23.1 19.4 98 0.2 CALM 0 0 0 0 1006.9 1006.7 0.0
29/02:00am 19.8 21.5 19.3 97 0.3 N 9 11 5 6 1006.8 1006.6 0.0
29/01:30am 19.7 21.8 18.9 95 0.5 N 6 7 3 4 1006.9 1006.7 0.0
29/01:00am 20.1 22.2 18.9 93 0.8 N 6 7 3 4 1007.2 1006.9 0.0
29/12:30am 20.8 23.5 19.5 92 0.8 N 4 7 2 4 1007.5 1007.2 0.0
29/12:00am 20.7 22.2 19.0 90 1.1 N 9 11 5 6 1007.8 1007.5 0.0
 
Date/Time
WST
Temp
°C
App
Temp
°C
Dew
Point
°C
Rel
Hum
%
Delta-T
°C
Wind Press
QNH
hPa
Press
MSL
hPa
Rain since
9am
mm
Dir  Spd
km/h
Gust
km/h
Spd
kts
Gust
kts
28/11:30pm 21.2 22.9 19.3 89 1.2 NW 9 15 5 8 1007.9 1007.6 0.0
28/11:00pm 22.0 24.4 20.1 89 1.2 NW 7 13 4 7 1008.2 1007.9 0.0
28/10:30pm 21.9 24.0 20.2 90 1.1 NNW 9 17 5 9 1008.2 1007.9 0.0
28/10:00pm 22.1 24.3 20.4 90 1.1 NNE 9 13 5 7 1008.2 1007.9 0.0
28/09:30pm 21.8 23.8 19.9 89 1.2 NNW 9 15 5 8 1008.0 1007.7 0.0
28/09:00pm 22.1 23.6 19.8 87 1.5 NW 11 15 6 8 1007.8 1007.5 0.0
28/08:30pm 22.4 23.7 19.4 83 1.9 NW 11 17 6 9 1007.6 1007.3 0.0
28/08:00pm 22.9 23.6 18.9 78 2.5 NNW 13 19 7 10 1007.3 1007.0 0.0
28/07:30pm 23.6 23.4 18.5 73 3.2 NNW 17 26 9 14 1006.8 1006.6 0.0
28/07:00pm 24.7 23.8 18.2 67 4.1 NNW 20 32 11 17 1006.6 1006.4 0.0
28/06:30pm 26.0 24.2 17.9 61 5.1 N 24 33 13 18 1006.1 1005.9 0.0
28/06:00pm 27.3 26.2 17.8 56 6.0 NNW 20 30 11 16 1005.9 1005.7 0.0
28/05:30pm 27.2 26.1 17.7 56 6.0 NNW 20 32 11 17 1006.1 1005.9 0.0
28/05:00pm 29.5 26.2 17.0 47 7.9 N 30 43 16 23 1005.7 1005.5 0.0
28/04:30pm 30.2 26.3 16.9 44 8.4 N 33 46 18 25 1005.5 1005.3 0.0
28/04:03pm 30.4 26.6 16.8 44 8.6 NNE 32 50 17 27 1005.3 1005.1 0.0
28/04:00pm 30.0 26.2 16.8 45 8.3 NNE 32 48 17 26 1005.3 1005.1 0.0
28/03:33pm 30.9 26.9 16.1 41 9.3 N 32 52 17 28 1005.2 1005.0 0.0
28/03:30pm 30.9 27.4 16.5 42 9.1 NNE 30 44 16 24 1005.2 1005.0 0.0
28/03:08pm 31.6 28.6 16.7 40 9.4 NNE 28 46 15 25 1005.1 1004.9 0.0
28/03:00pm 30.7 26.0 15.9 40 9.3 N 35 48 19 26 1005.1 1004.9 0.0
28/02:31pm 31.0 27.8 16.2 41 9.3 NNE 28 54 15 29 1005.2 1005.0 0.0
28/02:30pm 31.6 28.6 16.7 40 9.4 NNE 28 39 15 21 1005.3 1005.1 0.0
28/02:12pm 30.6 27.4 16.2 41 9.0 NNE 28 48 15 26 1005.5 1005.3 0.0
28/02:00pm 30.9 28.7 16.9 43 8.9 NNE 24 37 13 20 1005.5 1005.3 0.0
28/01:38pm 30.9 27.1 17.2 43 8.7 N 33 52 18 28 1005.9 1005.7 0.0
28/01:30pm 30.3 25.2 16.7 44 8.6 N 39 52 21 28 1005.9 1005.7 0.0
28/01:06pm 30.2 27.2 16.9 44 8.4 N 28 46 15 25 1006.5 1006.3 0.0
28/01:00pm 30.3 26.8 17.4 46 8.2 N 32 46 17 25 1006.6 1006.4 0.0
28/12:30pm 29.0 25.5 16.5 46 7.8 NNE 30 50 16 27 1007.3 1007.0 0.0
28/12:01pm 29.0 25.3 16.9 48 7.6 NNE 32 48 17 26 1007.6 1007.3 0.0
28/12:00pm 29.2 25.7 17.4 49 7.5 NNE 32 48 17 26 1007.6 1007.3 0.0
28/11:59am 29.1 25.4 17.0 48 7.6 NNE 32 48 17 26 1007.6 1007.3 0.0
28/11:30am 29.7 24.8 17.2 47 7.9 N 39 56 21 30 1008.0 1007.7 0.0
28/11:03am 28.9 25.0 16.5 47 7.7 N 32 52 17 28 1008.2 1007.9 0.0
28/11:00am 29.2 25.8 16.7 46 7.9 N 30 46 16 25 1008.3 1008.0 0.0
28/10:30am 29.4 26.0 17.6 49 7.5 NNE 32 50 17 27 1008.5 1008.2 0.0
28/10:02am 28.3 24.5 16.6 49 7.3 NNE 32 50 17 27 1008.7 1008.4 0.0
28/10:00am 28.0 23.8 16.3 49 7.3 NNE 33 50 18 27 1008.7 1008.4 0.0
28/09:30am 28.2 25.1 17.4 52 6.8 N 30 41 16 22 1008.6 1008.3 0.0
28/09:00am 27.0 24.7 17.5 56 6.0 N 26 35 14 19 1008.4 1008.1 1.2
28/08:30am 25.8 27.3 18.0 62 4.9 N 7 28 4 15 1008.0 1007.7 1.2
28/08:00am 22.2 25.5 19.0 82 2.0 CALM 0 0 0 0 1008.0 1007.7 1.2
28/07:30am 19.9 23.0 18.6 92 0.8 CALM 0 0 0 0 1008.2 1007.9 1.2
28/07:00am 18.9 20.4 17.6 92 0.8 ESE 6 9 3 5 1008.0 1007.7 1.2
28/06:30am 18.6 21.1 17.3 92 0.8 CALM 0 0 0 0 1008.0 1007.7 1.2
28/06:00am 18.6 19.9 17.1 91 0.9 ESE 6 13 3 7 1007.8 1007.5 1.2
28/05:30am 18.8 19.5 17.1 90 1.0 SE 9 13 5 7 1007.8 1007.5 1.2
28/05:00am 19.0 20.1 17.1 89 1.2 SE 7 13 4 7 1008.1 1007.8 1.2
28/04:30am 19.3 19.7 17.3 88 1.2 SE 11 15 6 8 1008.2 1007.9 1.2
28/04:00am 19.4 20.2 17.4 88 1.2 ESE 9 13 5 7 1008.4 1008.1 1.2
28/03:30am 19.3 20.1 17.4 89 1.2 SSE 9 11 5 6 1008.9 1008.6 1.2
28/03:00am 19.3 19.8 17.4 89 1.2 SSE 11 13 6 7 1009.0 1008.7 1.2
28/02:30am 19.6 21.0 17.7 89 1.2 E 7 11 4 6 1009.2 1008.9 1.2
28/02:00am 19.4 21.4 17.9 91 0.9 ESE 4 7 2 4 1009.2 1008.9 1.2
28/01:30am 19.3 22.1 18.0 92 0.8 CALM 0 0 0 0 1009.8 1009.5 1.2
28/01:00am 18.9 21.5 17.4 91 0.9 CALM 0 0 0 0 1009.5 1009.2 1.2
28/12:30am 18.8 21.1 16.8 88 1.2 CALM 0 0 0 0 1010.1 1009.8 1.2
28/12:00am 19.3 21.7 16.9 86 1.5 CALM 0 0 0 0 1010.0 1009.7 1.2
 
Date/Time
WST
Temp
°C
App
Temp
°C
Dew
Point
°C
Rel
Hum
%
Delta-T
°C
Wind Press
QNH
hPa
Press
MSL
hPa
Rain since
9am
mm
Dir  Spd
km/h
Gust
km/h
Spd
kts
Gust
kts
27/11:30pm 19.9 22.2 16.7 82 1.9 CALM 0 0 0 0 1010.5 1010.2 1.2
27/11:00pm 20.8 22.0 16.8 78 2.4 E 6 9 3 5 1010.9 1010.6 1.2
27/10:30pm 21.5 22.9 17.3 77 2.6 SE 6 11 3 6 1010.5 1010.2 1.2
27/10:00pm 21.8 22.5 17.0 74 2.9 SE 9 13 5 7 1010.6 1010.3 1.2
27/09:30pm 22.3 23.4 17.0 72 3.3 SE 7 15 4 8 1010.9 1010.6 1.2
27/09:00pm 22.8 23.6 17.3 71 3.4 SE 9 13 5 7 1010.8 1010.5 1.2
27/08:30pm 23.5 24.3 17.3 68 3.8 ESE 9 13 5 7 1010.9 1010.6 1.2
27/08:00pm 24.1 24.4 17.1 65 4.3 ENE 11 17 6 9 1010.9 1010.6 1.2
27/07:30pm 24.6 25.5 17.6 65 4.4 E 9 19 5 10 1010.3 1010.0 1.2
27/07:00pm 25.0 26.1 18.0 65 4.4 ENE 9 13 5 7 1010.5 1010.2 1.2
27/06:30pm 25.8 26.9 18.0 62 4.9 E 9 15 5 8 1009.7 1009.4 1.2
27/06:00pm 26.3 26.5 17.6 58 5.5 ENE 13 24 7 13 1009.8 1009.5 1.2
27/05:30pm 26.4 26.7 18.8 63 4.9 E 15 20 8 11 1009.6 1009.3 1.2
27/05:00pm 25.7 26.5 19.1 67 4.2 ENE 13 20 7 11 1009.8 1009.5 1.2
27/04:30pm 26.7 27.0 18.8 62 5.1 E 15 30 8 16 1009.8 1009.5 1.2
27/04:00pm 27.1 27.1 18.9 61 5.3 E 17 24 9 13 1009.9 1009.6 0.2
27/03:30pm 27.9 26.9 18.0 55 6.3 ESE 20 33 11 18 1009.7 1009.4 0.2
27/03:00pm 28.4 27.5 18.2 54 6.5 ESE 20 32 11 17 1010.5 1010.2 0.2
27/02:30pm 28.1 27.5 18.8 57 6.0 ENE 20 32 11 17 1011.0 1010.7 0.2
27/02:00pm 27.7 27.2 19.2 60 5.5 E 20 32 11 17 1011.3 1011.0 0.2
27/01:30pm 26.1 25.3 18.5 63 4.8 E 20 33 11 18 1012.0 1011.7 0.2
27/01:00pm 25.7 25.4 19.6 69 4.0 E 20 37 11 20 1012.8 1012.5 0.2
27/12:30pm 24.0 23.4 18.9 73 3.3 E 20 32 11 17 1013.3 1013.0 0.2
27/12:00pm 22.5 21.0 18.5 78 2.5 E 24 44 13 24 1013.6 1013.3 0.2
27/11:30am 20.9 19.1 18.7 87 1.4 E 26 37 14 20 1013.5 1013.2 0.2
27/11:00am 20.0 18.8 18.5 91 0.9 ESE 22 35 12 19 1014.3 1014.0 0.2
27/10:30am 19.5 17.3 18.8 96 0.4 SE 28 44 15 24 1014.8 1014.5 0.2
27/10:00am 18.2 17.1 17.7 97 0.3 S 20 28 11 15 1016.6 1016.4 0.2
27/09:30am 18.1 16.9 17.5 96 0.4 SE 20 28 11 15 1016.5 1016.3 0.0
27/09:00am 18.2 16.9 17.2 94 0.6 SSE 20 30 11 16 1017.0 1016.8 10.6
27/08:30am 18.1 16.4 16.3 89 1.1 SE 20 26 11 14 1017.3 1017.1 10.4
27/08:00am 18.5 17.2 15.9 85 1.5 SSE 17 24 9 13 1017.6 1017.4 9.2
27/07:30am 18.3 16.5 16.1 87 1.3 SE 20 30 11 16 1016.4 1016.2 9.2
27/07:00am 17.8 16.2 16.5 92 0.8 SSE 20 28 11 15 1015.9 1015.7 9.2
27/06:30am 17.5 16.8 16.4 93 0.7 SSE 15 20 8 11 1015.5 1015.2 9.2
27/06:00am 17.2 16.1 16.4 95 0.5 SSE 17 22 9 12 1015.0 1014.7 9.2
27/05:30am 16.8 17.1 16.0 95 0.5 SE 9 13 5 7 1014.5 1014.2 9.2
27/05:00am 16.9 16.4 15.8 93 0.6 ESE 13 19 7 10 1013.9 1013.6 9.2
27/04:30am 17.1 16.9 15.8 92 0.8 ESE 11 17 6 9 1014.7 1014.4 9.2
27/04:00am 17.1 15.6 15.4 90 1.0 SE 17 26 9 14 1014.0 1013.7 9.2
27/03:30am 17.3 15.3 15.5 89 1.1 SE 20 28 11 15 1013.7 1013.4 9.2
27/03:00am 17.6 15.8 15.4 87 1.3 SSE 19 32 10 17 1014.1 1013.8 9.2
27/02:30am 17.9 15.5 15.5 86 1.4 SE 22 32 12 17 1014.5 1014.2 9.2
27/02:00am 18.2 15.2 15.8 86 1.4 SSE 26 37 14 20 1015.0 1014.7 9.2
27/01:30am 18.2 16.2 16.5 90 1.0 SSE 22 33 12 18 1015.6 1015.3 9.2
27/01:00am 18.0 16.9 17.2 95 0.5 SSE 19 26 10 14 1015.6 1015.3 9.2
27/12:30am 18.0 16.9 17.7 98 0.2 SSE 20 30 11 16 1014.6 1014.3 9.2
27/12:00am 18.0 17.5 17.8 99 0.1 SE 17 22 9 12 1014.8 1014.5 9.2
 
Date/Time
WST
Temp
°C
App
Temp
°C
Dew
Point
°C
Rel
Hum
%
Delta-T
°C
Wind Press
QNH
hPa
Press
MSL
hPa
Rain since
9am
mm
Dir  Spd
km/h
Gust
km/h
Spd
kts
Gust
kts
26/11:30pm 18.1 17.6 17.9 99 0.1 SE 17 24 9 13 1014.2 1013.9 9.2
26/11:00pm 18.5 18.6 18.3 99 0.1 SE 15 22 8 12 1014.4 1014.1 9.2
26/10:30pm 18.8 19.9 18.8 100 0.0 ESE 11 19 6 10 1015.0 1014.7 9.2
26/10:00pm 18.8 19.9 18.8 100 0.0 SE 11 20 6 11 1015.3 1015.0 9.2
26/09:30pm 18.9 19.6 18.9 100 0.0 SE 13 22 7 12 1015.4 1015.1 9.2
26/09:00pm 19.1 19.5 19.1 100 0.0 SE 15 20 8 11 1015.8 1015.6 9.2
26/08:30pm 19.4 20.0 19.4 100 0.0 SSE 15 20 8 11 1016.2 1016.0 9.2
26/08:00pm 19.5 18.3 19.3 99 0.1 ESE 24 39 13 21 1015.1 1014.8 9.0
26/07:52pm 19.5 17.9 19.3 99 0.1 S 26 39 14 21 1015.7 1015.5 8.6
26/07:30pm 19.6 20.6 19.4 99 0.1 ESE 13 20 7 11 1015.9 1015.7 7.4
26/07:00pm 19.8 20.7 19.3 97 0.3 SE 13 19 7 10 1016.6 1016.4 7.2
26/06:30pm 19.9 21.1 19.1 95 0.5 ESE 11 13 6 7 1016.7 1016.5 4.6
26/06:00pm 20.1 22.2 18.9 93 0.8 SE 6 11 3 6 1016.4 1016.2 1.6
26/05:30pm 20.0 20.8 19.0 94 0.6 E 13 20 7 11 1015.8 1015.6 1.2
26/05:00pm 20.1 21.2 18.9 93 0.8 E 11 19 6 10 1016.4 1016.2 1.2
26/04:30pm 20.1 21.4 18.4 90 1.1 ENE 9 17 5 9 1017.2 1017.0 1.0
26/04:00pm 20.4 23.0 17.4 83 1.8 CALM 0 2 0 1 1017.9 1017.7 0.6
26/03:30pm 21.7 22.8 16.6 73 3.1 SW 6 11 3 6 1017.5 1017.3 0.2
26/03:00pm 22.3 23.0 16.1 68 3.8 SSE 7 15 4 8 1016.0 1015.8 0.0
26/02:30pm 23.5 22.7 16.1 63 4.5 SSE 15 22 8 12 1016.2 1016.0 0.0
26/02:00pm 24.0 24.1 14.4 55 5.7 SSE 7 26 4 14 1016.7 1016.5 0.0
26/01:30pm 25.7 25.3 14.2 49 6.8 ENE 9 15 5 8 1016.8 1016.6 0.0

Other formats

Comma delimited format used in spreadsheet applications
http://www.bom.gov.au/fwo/IDW60801/IDW60801.95641.axf

JavaScript Object Notation format (JSON) in row-major order
http://www.bom.gov.au/fwo/IDW60801/IDW60801.95641.json

Data quality

Most of these data are generated automatically and are frequently updated. Quality checks on data are not normally performed. It is possible for incorrect values to appear. Refer to information at About Latest Weather Observations and please check the disclaimer before using these data.